Time;durP1;ratioP1;P1;durP2;ratioP2;P2;SDS_P1;SDS_P2;PMS_P1;PMS_P2;Temp;Humidity;BMP_temperature;BMP_pressure;BME280_temperature;BME280_humidity;BME280_pressure;Samples;Min_cycle;Max_cycle;Signal;HPM_P1;HPM_P2
2022/03/17 00:00:14;;;;;;;6.28;3.92;;;;;;;4.85;64.50;100603.59;4308635;33;34422;-91
2022/03/17 00:02:43;;;;;;;;;;;;;;;5.40;62.79;100604.88;4312432;33;34285;-91
2022/03/17 00:05:14;;;;;;;3.97;2.75;;;;;;;5.48;62.10;100611.06;4307395;33;34183;-93
2022/03/17 00:07:44;;;;;;;6.95;3.97;;;;;;;5.06;63.57;100611.81;4292969;33;33469;-92
2022/03/17 00:10:15;;;;;;;5.72;3.33;;;;;;;5.34;62.50;100610.78;4281273;33;34010;-90
2022/03/17 00:12:45;;;;;;;7.40;4.80;;;;;;;5.37;62.13;100616.81;4294953;33;34202;-93
2022/03/17 00:15:14;;;;;;;9.13;4.62;;;;;;;5.32;62.14;100615.00;4294521;33;33083;-91
2022/03/17 00:17:43;;;;;;;6.65;4.03;;;;;;;4.62;64.12;100627.00;4294357;33;33495;-94
2022/03/17 00:20:14;;;;;;;6.85;3.53;;;;;;;5.13;62.69;100615.41;4281788;33;32582;-90
2022/03/17 00:22:43;;;;;;;7.25;3.75;;;;;;;5.26;62.44;100627.72;4282024;33;32781;-92
2022/03/17 00:25:12;;;;;;;7.43;3.92;;;;;;;5.39;61.98;100628.88;4295580;33;33051;-92
2022/03/17 00:27:41;;;;;;;8.10;3.97;;;;;;;5.24;62.30;100634.56;4290999;33;32335;-92
2022/03/17 00:30:10;;;;;;;6.55;3.60;;;;;;;5.10;62.69;100636.78;4302020;33;33956;-95
2022/03/17 00:32:39;;;;;;;5.82;4.30;;;;;;;5.02;63.15;100628.00;4296406;33;33772;-92
2022/03/17 00:37:56;;;;;;;5.57;3.72;;;;;;;5.38;61.99;100634.84;4297055;33;33317;-91
2022/03/17 00:40:25;;;;;;;6.95;4.00;;;;;;;5.59;60.61;100625.88;4296722;33;34376;-93
2022/03/17 00:42:55;;;;;;;7.65;4.35;;;;;;;5.53;60.69;100632.66;4297361;33;34418;-92
2022/03/17 00:45:25;;;;;;;8.98;4.68;;;;;;;5.61;60.21;100625.09;4297641;33;34625;-92
2022/03/17 00:47:53;;;;;;;6.70;3.87;;;;;;;5.16;61.81;100633.47;4295578;33;33704;-92
2022/03/17 00:50:23;;;;;;;8.18;4.80;;;;;;;5.08;61.74;100628.16;4295912;33;33479;-94
2022/03/17 00:52:52;;;;;;;5.35;3.42;;;;;;;5.25;61.21;100627.69;4297821;33;33663;-92
2022/03/17 00:55:23;;;;;;;7.07;4.32;;;;;;;5.16;61.13;100619.75;4285002;33;31125;-92
2022/03/17 00:57:53;;;;;;;6.82;3.75;;;;;;;5.33;60.54;100623.59;4279442;33;32833;-91
2022/03/17 01:00:22;;;;;;;6.65;3.92;;;;;;;5.38;60.28;100628.84;4282715;33;34711;-89
2022/03/17 01:02:54;;;;;;;5.95;3.87;;;;;;;5.29;60.39;100632.97;4285953;33;33861;-91
2022/03/17 01:05:27;;;;;;;7.70;4.57;;;;;;;5.26;60.66;100634.56;4284758;33;34196;-91
2022/03/17 01:07:56;;;;;;;6.70;3.72;;;;;;;5.41;60.16;100640.06;4282689;33;33867;-91
2022/03/17 01:10:26;;;;;;;5.87;3.80;;;;;;;5.43;60.17;100635.81;4291426;33;33262;-91
2022/03/17 01:12:56;;;;;;;8.25;4.53;;;;;;;5.21;60.72;100637.03;4278067;33;34845;-92
2022/03/17 01:15:24;;;;;;;6.07;3.83;;;;;;;5.35;60.12;100643.38;4273869;33;31460;-92
2022/03/17 01:17:53;;;;;;;6.57;3.97;;;;;;;4.74;62.11;100641.88;4286934;33;33566;-92
2022/03/17 01:20:22;;;;;;;4.93;3.50;;;;;;;5.00;61.50;100646.78;4286455;33;34138;-92
2022/03/17 01:22:51;;;;;;;7.15;3.87;;;;;;;5.17;60.80;100648.09;4293108;33;34270;-92
2022/03/17 01:25:20;;;;;;;9.98;5.07;;;;;;;4.93;61.77;100643.22;4284607;33;34202;-93
2022/03/17 01:27:50;;;;;;;8.02;4.22;;;;;;;5.16;60.88;100640.34;4280600;33;33284;-92
2022/03/17 01:30:19;;;;;;;6.05;4.45;;;;;;;5.15;61.04;100639.47;4287532;33;33635;-92
2022/03/17 01:32:48;;;;;;;9.50;4.05;;;;;;;5.09;61.22;100642.75;4290579;33;32264;-92
2022/03/17 01:35:20;;;;;;;8.10;4.05;;;;;;;5.31;60.28;100636.41;4291196;33;33297;-91
2022/03/17 01:37:48;;;;;;;6.65;4.12;;;;;;;4.95;61.51;100644.09;4281231;33;33068;-92
2022/03/17 01:40:17;;;;;;;5.85;4.10;;;;;;;5.05;61.20;100637.50;4286412;33;34242;-92
2022/03/17 01:42:46;;;;;;;6.05;4.43;;;;;;;4.80;62.14;100643.72;4284943;33;33958;-92
2022/03/17 01:45:16;;;;;;;7.90;4.65;;;;;;;4.99;61.30;100640.78;4273197;33;32776;-91
2022/03/17 01:47:45;;;;;;;6.17;4.17;;;;;;;5.13;60.67;100636.00;4287169;33;34445;-91
2022/03/17 01:50:16;;;;;;;8.65;4.68;;;;;;;5.06;60.81;100640.13;4291889;33;33403;-93
2022/03/17 01:52:45;;;;;;;;;;;;;;;4.87;61.20;100632.78;4271618;33;34108;-92
2022/03/17 01:55:17;;;;;;;7.12;4.10;;;;;;;4.87;61.29;100630.22;4271179;33;32770;-92
2022/03/17 01:57:46;;;;;;;7.15;4.12;;;;;;;5.13;60.68;100638.56;4287892;33;33443;-91
2022/03/17 02:00:18;;;;;;;6.28;4.12;;;;;;;5.10;60.75;100638.50;4291055;33;33408;-91
2022/03/17 02:02:49;;;;;;;7.43;4.87;;;;;;;5.07;61.13;100649.59;4279873;33;32409;-91
2022/03/17 02:05:19;;;;;;;10.02;5.00;;;;;;;4.87;61.45;100640.50;4287663;33;32987;-91
2022/03/17 02:07:49;;;;;;;9.85;4.50;;;;;;;5.10;61.05;100647.06;4289466;33;33942;-91
2022/03/17 02:10:19;;;;;;;8.45;5.35;;;;;;;5.01;61.31;100648.56;4273727;33;33353;-92
2022/03/17 02:15:37;;;;;;;7.65;4.30;;;;;;;4.99;61.24;100663.94;4288859;33;33401;-91
2022/03/17 02:18:07;;;;;;;7.40;4.17;;;;;;;5.01;61.08;100664.00;4303025;33;33624;-92
2022/03/17 02:20:37;;;;;;;8.50;5.47;;;;;;;4.86;61.42;100662.75;4297314;33;34257;-92
2022/03/17 02:25:56;;;;;;;8.00;4.07;;;;;;;5.19;60.21;100666.12;4299255;33;33687;-93
2022/03/17 02:28:26;;;;;;;9.65;4.53;;;;;;;4.88;61.04;100666.25;4296892;33;34540;-92
2022/03/17 02:30:55;;;;;;;8.52;4.50;;;;;;;4.88;61.20;100673.06;4296597;33;34504;-93
2022/03/17 02:33:24;;;;;;;6.25;4.80;;;;;;;4.92;61.08;100665.47;4301844;33;34793;-93
2022/03/17 02:35:53;;;;;;;6.85;4.95;;;;;;;4.74;61.91;100677.00;4297656;33;33031;-93
2022/03/17 02:38:26;;;;;;;5.95;4.10;;;;;;;4.73;61.75;100672.69;4297048;33;34204;-92
2022/03/17 02:40:54;;;;;;;9.23;6.37;;;;;;;4.90;61.17;100679.12;4297710;33;33556;-93
2022/03/17 02:43:23;;;;;;;9.57;5.32;;;;;;;4.67;61.85;100683.69;4298803;33;34451;-92
2022/03/17 02:45:52;;;;;;;7.70;4.53;;;;;;;5.04;61.47;100675.19;4302772;33;33551;-92
2022/03/17 02:48:22;;;;;;;8.07;4.70;;;;;;;4.96;62.11;100684.44;4301053;33;33797;-93
2022/03/17 02:50:51;;;;;;;8.00;5.00;;;;;;;4.85;62.91;100680.72;4284075;33;34030;-92
2022/03/17 02:53:20;;;;;;;9.82;5.93;;;;;;;4.79;63.26;100685.72;4297601;33;34242;-93
2022/03/17 02:55:50;;;;;;;8.55;4.87;;;;;;;4.76;63.60;100701.94;4297455;33;32831;-92
2022/03/17 02:58:19;;;;;;;5.90;4.10;;;;;;;4.81;63.25;100695.19;4297063;33;32946;-92
2022/03/17 03:00:47;;;;;;;7.60;4.97;;;;;;;4.69;63.23;100690.59;4302192;33;34369;-93
2022/03/17 03:03:17;;;;;;;8.57;4.80;;;;;;;4.79;63.55;100701.13;4297424;33;33923;-92
2022/03/17 03:05:47;;;;;;;6.50;4.07;;;;;;;4.98;62.75;100702.47;4282834;33;33181;-92
2022/03/17 03:08:17;;;;;;;8.27;5.30;;;;;;;4.76;63.08;100703.59;4295428;33;34510;-93
2022/03/17 03:10:47;;;;;;;11.02;5.12;;;;;;;4.96;62.35;100719.56;4295037;33;33282;-93
2022/03/17 03:13:17;;;;;;;6.93;4.40;;;;;;;4.81;62.84;100715.75;4302234;33;33294;-95
2022/03/17 03:15:46;;;;;;;7.10;4.15;;;;;;;4.69;63.23;100721.44;4283614;33;33113;-94
2022/03/17 03:18:15;;;;;;;7.40;4.65;;;;;;;4.51;63.81;100720.94;4296906;33;33865;-93
2022/03/17 03:20:44;;;;;;;7.12;4.37;;;;;;;4.72;63.19;100723.22;4282030;33;33856;-94
2022/03/17 03:23:13;;;;;;;7.85;4.82;;;;;;;4.80;62.76;100719.16;4297089;33;33978;-93
2022/03/17 03:25:42;;;;;;;7.60;4.65;;;;;;;4.58;63.19;100714.28;4298948;33;34276;-92
2022/03/17 03:28:12;;;;;;;10.75;5.18;;;;;;;4.67;62.83;100709.38;4277591;33;33986;-93
2022/03/17 03:30:42;;;;;;;7.85;5.18;;;;;;;4.45;63.80;100708.78;4295881;33;34634;-93
2022/03/17 03:33:11;;;;;;;8.00;5.03;;;;;;;4.26;64.45;100709.97;4294713;33;36164;-92
2022/03/17 03:38:26;;;;;;;5.00;3.78;;;;;;;4.33;64.18;100708.44;4296652;33;34139;-93
2022/03/17 03:40:55;;;;;;;8.25;4.97;;;;;;;4.66;63.06;100715.34;4302998;33;33992;-92
2022/03/17 03:43:24;;;;;;;5.62;3.97;;;;;;;4.32;63.78;100721.25;4297271;33;34451;-93
2022/03/17 03:45:54;;;;;;;7.53;5.43;;;;;;;4.34;63.63;100717.03;4283566;33;31779;-93
2022/03/17 03:48:23;;;;;;;6.93;4.82;;;;;;;4.42;63.53;100720.66;4283742;33;34051;-93
2022/03/17 03:50:51;;;;;;;10.95;6.03;;;;;;;4.24;64.59;100718.47;4283984;33;34208;-93
2022/03/17 03:53:20;;;;;;;8.02;5.05;;;;;;;4.39;63.89;100726.59;4302111;33;33462;-93
2022/03/17 03:55:49;;;;;;;11.73;5.12;;;;;;;4.36;64.01;100725.66;4298974;33;33692;-93
2022/03/17 03:58:18;;;;;;;9.18;5.65;;;;;;;4.15;64.36;100725.88;4296255;33;34029;-92
2022/03/17 04:00:47;;;;;;;9.25;5.35;;;;;;;4.35;63.65;100723.88;4296819;33;34802;-92
2022/03/17 04:03:17;;;;;;;7.82;4.65;;;;;;;4.46;63.08;100723.38;4298088;33;34266;-93
2022/03/17 04:05:46;;;;;;;9.68;5.90;;;;;;;4.39;63.14;100718.00;4284934;33;33301;-95
2022/03/17 04:08:15;;;;;;;11.12;5.53;;;;;;;4.39;63.11;100715.44;4303204;33;33837;-92
2022/03/17 04:10:44;;;;;;;10.45;5.65;;;;;;;4.47;62.73;100707.13;4298758;33;34108;-93
2022/03/17 04:13:12;;;;;;;6.15;4.20;;;;;;;4.40;62.79;100712.94;4299252;33;34331;-93
2022/03/17 04:15:41;;;;;;;11.93;4.78;;;;;;;4.33;62.68;100713.59;4284739;33;33709;-93
2022/03/17 04:18:10;;;;;;;8.85;5.47;;;;;;;4.14;63.51;100709.62;4284927;33;33053;-92
2022/03/17 04:20:40;;;;;;;10.63;5.78;;;;;;;3.48;65.53;100697.34;4303541;33;33613;-93
2022/03/17 04:23:09;;;;;;;8.77;5.28;;;;;;;4.01;63.74;100694.66;4296975;33;33440;-93
2022/03/17 04:25:40;;;;;;;10.90;5.43;;;;;;;4.34;62.85;100699.91;4284384;33;32525;-93
2022/03/17 04:28:09;;;;;;;;;;;;;;;4.63;61.21;100704.97;4298235;33;33000;-93
2022/03/17 04:30:39;;;;;;;8.77;4.78;;;;;;;4.73;60.62;100713.81;4298233;33;34857;-92
2022/03/17 04:33:08;;;;;;;6.50;4.65;;;;;;;4.79;59.97;100711.41;4289817;33;32790;-93
2022/03/17 04:35:36;;;;;;;10.00;4.82;;;;;;;4.88;59.75;100724.50;4284922;33;31790;-94
2022/03/17 04:38:07;;;;;;;9.05;4.70;;;;;;;4.80;59.83;100734.56;4295107;33;34283;-92
2022/03/17 04:40:35;;;;;;;7.87;4.87;;;;;;;4.96;59.15;100746.16;4287678;33;36417;-93
2022/03/17 04:43:04;;;;;;;10.35;5.47;;;;;;;4.85;59.26;100751.00;4303332;33;34511;-93
2022/03/17 04:45:33;;;;;;;8.50;5.43;;;;;;;4.86;58.85;100749.31;4294203;33;32840;-93
2022/03/17 04:48:02;;;;;;;7.37;5.20;;;;;;;4.85;59.07;100750.13;4302267;33;34341;-93
2022/03/17 04:50:31;;;;;;;7.80;5.43;;;;;;;4.75;59.51;100749.00;4300474;33;33611;-92
2022/03/17 04:55:47;;;;;;;8.77;5.12;;;;;;;4.56;59.68;100742.47;4282783;33;33457;-93
2022/03/17 04:58:16;;;;;;;11.57;5.57;;;;;;;4.25;60.59;100745.87;4283880;33;32839;-93
2022/03/17 05:00:46;;;;;;;8.10;5.47;;;;;;;4.43;60.35;100753.25;4303857;33;33595;-93
2022/03/17 05:03:15;;;;;;;10.82;5.90;;;;;;;4.48;59.67;100759.41;4298283;33;34756;-93
2022/03/17 05:05:44;;;;;;;10.45;5.43;;;;;;;4.53;59.80;100755.25;4279539;33;33758;-93
2022/03/17 05:08:13;;;;;;;8.35;5.20;;;;;;;4.25;61.13;100758.72;4284233;33;33337;-93
2022/03/17 05:10:43;;;;;;;9.95;5.65;;;;;;;3.85;61.85;100760.94;4298263;33;34009;-94
2022/03/17 05:13:15;;;;;;;9.07;5.18;;;;;;;3.53;62.95;100762.50;4291316;33;33918;-93
2022/03/17 05:15:48;;;;;;;8.55;5.30;;;;;;;3.62;62.67;100775.63;4297974;33;33349;-92
2022/03/17 05:18:17;;;;;;;8.80;5.05;;;;;;;4.43;60.38;100778.94;4301493;33;33621;-93
2022/03/17 05:20:46;;;;;;;9.68;5.05;;;;;;;4.69;59.09;100792.56;4297960;33;33521;-92
2022/03/17 05:23:16;;;;;;;9.80;5.12;;;;;;;4.98;58.17;100802.75;4301476;33;33933;-93
2022/03/17 05:25:47;;;;;;;8.93;5.30;;;;;;;5.12;57.57;100807.47;4294934;33;33038;-91
2022/03/17 05:28:17;;;;;;;10.00;4.93;;;;;;;5.14;57.68;100813.50;4297812;33;33823;-92
2022/03/17 05:30:47;;;;;;;10.00;5.90;;;;;;;5.09;57.57;100819.34;4289565;33;33165;-92
2022/03/17 05:33:16;;;;;;;7.68;4.97;;;;;;;4.79;58.87;100816.81;4300342;33;33471;-92
2022/03/17 05:35:45;;;;;;;7.10;5.22;;;;;;;5.21;56.86;100818.81;4283038;33;32603;-93
2022/03/17 05:38:14;;;;;;;7.18;5.05;;;;;;;5.16;56.68;100813.53;4295602;33;34627;-91
2022/03/17 05:40:44;;;;;;;10.55;6.03;;;;;;;5.32;56.52;100819.97;4302511;33;33484;-92
2022/03/17 05:43:13;;;;;;;9.27;5.25;;;;;;;5.42;55.96;100827.09;4289921;33;34043;-93
2022/03/17 05:45:43;;;;;;;8.23;5.50;;;;;;;5.16;57.02;100830.69;4298102;33;33314;-93
2022/03/17 05:48:12;;;;;;;8.23;5.53;;;;;;;5.03;57.19;100843.22;4274998;33;32668;-93
2022/03/17 05:50:42;;;;;;;8.32;5.40;;;;;;;4.74;58.70;100850.09;4285017;33;33312;-92
2022/03/17 05:53:12;;;;;;;11.68;6.37;;;;;;;5.12;57.90;100853.75;4299977;33;34091;-92
2022/03/17 05:55:41;;;;;;;10.05;6.70;;;;;;;5.17;57.38;100860.72;4290194;33;32268;-92
2022/03/17 05:58:10;;;;;;;10.48;6.03;;;;;;;5.36;56.88;100855.22;4295477;33;34289;-93
2022/03/17 06:00:39;;;;;;;12.23;6.12;;;;;;;5.30;57.14;100858.53;4294082;33;36435;-92
2022/03/17 06:03:13;;;;;;;7.90;5.20;;;;;;;5.20;57.90;100860.81;4279372;33;32232;-94
2022/03/17 06:05:42;;;;;;;8.15;5.28;;;;;;;5.35;57.63;100861.22;4290332;33;31673;-92
2022/03/17 06:08:11;;;;;;;8.70;4.95;;;;;;;5.31;57.34;100857.69;4302586;33;34015;-93
2022/03/17 06:10:40;;;;;;;10.05;6.25;;;;;;;5.52;56.27;100867.69;4291974;33;33521;-92
2022/03/17 06:13:08;;;;;;;8.55;5.53;;;;;;;5.65;55.77;100866.28;4296038;33;34332;-92
2022/03/17 06:15:37;;;;;;;7.95;5.22;;;;;;;6.07;54.91;100868.25;4296755;33;33328;-93
2022/03/17 06:18:06;;;;;;;7.53;5.15;;;;;;;6.11;54.92;100866.59;4296543;33;34342;-92
2022/03/17 06:20:38;;;;;;;11.75;7.03;;;;;;;6.18;55.03;100866.75;4303388;33;34134;-91
2022/03/17 06:23:07;;;;;;;;;;;;;;;6.49;54.29;100879.50;4288472;33;32998;-91
2022/03/17 06:25:36;;;;;;;9.93;5.68;;;;;;;6.38;54.66;100880.13;4294912;33;34125;-92
2022/03/17 06:28:09;;;;;;;10.02;5.70;;;;;;;6.51;54.12;100883.00;4293906;33;33203;-92
2022/03/17 06:30:38;;;;;;;10.63;6.37;;;;;;;6.44;53.83;100891.41;4295281;33;34717;-94
2022/03/17 06:33:08;;;;;;;11.02;7.18;;;;;;;6.41;53.34;100900.81;4290242;33;32968;-92
2022/03/17 06:35:38;;;;;;;10.23;5.87;;;;;;;6.32;53.49;100895.44;4296126;33;34239;-94
2022/03/17 06:38:08;;;;;;;9.43;5.37;;;;;;;6.55;52.55;100895.13;4295737;33;34521;-93
2022/03/17 06:40:37;;;;;;;12.68;6.53;;;;;;;6.35;52.59;100897.22;4295529;33;33888;-94
2022/03/17 06:43:06;;;;;;;12.02;5.90;;;;;;;6.50;52.31;100897.59;4296297;33;34090;-93
2022/03/17 06:45:36;;;;;;;10.60;5.35;;;;;;;6.81;51.53;100891.41;4293051;33;33321;-91
2022/03/17 06:48:05;;;;;;;10.70;7.97;;;;;;;6.87;51.46;100887.22;4286025;33;32556;-91
2022/03/17 06:50:36;;;;;;;10.75;7.12;;;;;;;7.01;50.88;100898.69;4295587;33;33915;-91
2022/03/17 06:53:06;;;;;;;8.43;5.70;;;;;;;6.43;51.35;100897.38;4297454;33;34547;-92
2022/03/17 06:55:36;;;;;;;9.93;6.80;;;;;;;6.70;52.04;100902.31;4298584;33;35619;-91
2022/03/17 06:58:05;;;;;;;11.80;6.85;;;;;;;6.68;51.15;100897.13;4303841;33;32772;-92
2022/03/17 07:00:34;;;;;;;14.50;7.25;;;;;;;7.04;50.01;100901.31;4297001;33;33841;-92
2022/03/17 07:03:02;;;;;;;13.90;7.32;;;;;;;6.62;49.81;100899.59;4303142;33;33835;-92
2022/03/17 07:05:32;;;;;;;11.07;6.05;;;;;;;7.15;48.41;100914.44;4297363;33;33742;-93
2022/03/17 07:08:00;;;;;;;10.20;6.28;;;;;;;7.15;48.46;100917.91;4297242;33;34449;-91
2022/03/17 07:10:35;;;;;;;12.40;7.07;;;;;;;6.69;49.68;100908.31;4295791;33;34633;-92
2022/03/17 07:13:04;;;;;;;10.20;6.15;;;;;;;6.50;50.82;100905.31;4297130;33;33343;-92
2022/03/17 07:15:34;;;;;;;12.93;7.37;;;;;;;6.96;50.05;100910.59;4303498;33;33304;-92
2022/03/17 07:18:03;;;;;;;10.95;7.35;;;;;;;6.29;50.79;100913.41;4297280;33;33421;-92
2022/03/17 07:20:31;;;;;;;11.20;6.20;;;;;;;6.61;50.90;100905.56;4295810;33;34712;-92
2022/03/17 07:23:00;;;;;;;11.05;6.50;;;;;;;7.31;49.53;100913.03;4298004;33;34137;-91
2022/03/17 07:25:29;;;;;;;13.55;7.78;;;;;;;6.58;50.72;100913.22;4283146;33;32485;-93
2022/03/17 07:28:01;;;;;;;15.68;8.00;;;;;;;6.37;51.38;100904.16;4299119;33;33530;-92
2022/03/17 07:30:31;;;;;;;10.68;7.43;;;;;;;6.56;51.64;100905.44;4303388;33;34785;-93
2022/03/17 07:33:00;;;;;;;10.70;6.78;;;;;;;7.07;50.76;100910.84;4299690;33;34329;-93
2022/03/17 07:35:29;;;;;;;12.05;6.37;;;;;;;7.14;50.25;100913.56;4300863;33;33090;-91
2022/03/17 07:37:58;;;;;;;13.98;7.15;;;;;;;7.86;49.13;100911.50;4306401;33;33172;-91
2022/03/17 07:40:27;;;;;;;11.75;7.57;;;;;;;7.16;50.17;100908.44;4301826;33;33903;-93
2022/03/17 07:42:56;;;;;;;9.95;6.50;;;;;;;7.23;50.69;100911.19;4310207;33;34094;-93
2022/03/17 07:45:29;;;;;;;12.23;7.18;;;;;;;7.36;50.39;100911.41;4302582;33;32631;-91
2022/03/17 07:48:02;;;;;;;13.23;7.12;;;;;;;7.18;50.31;100912.81;4303866;33;32165;-91
2022/03/17 07:50:32;;;;;;;10.95;6.82;;;;;;;7.17;50.25;100913.62;4302696;33;33899;-93
2022/03/17 07:53:01;;;;;;;11.80;7.65;;;;;;;7.23;50.11;100911.19;4303491;33;34150;-93
2022/03/17 07:55:30;;;;;;;14.23;8.10;;;;;;;7.60;49.50;100913.59;4306142;33;33986;-93
2022/03/17 07:57:59;;;;;;;14.00;7.87;;;;;;;7.18;50.16;100912.81;4301270;33;33837;-92
2022/03/17 08:00:29;;;;;;;12.48;5.95;;;;;;;6.67;51.24;100909.97;4300199;33;33701;-92
2022/03/17 08:02:59;;;;;;;12.37;6.45;;;;;;;7.52;49.60;100913.47;4302897;33;34152;-93
2022/03/17 08:05:28;;;;;;;10.25;6.95;;;;;;;7.68;49.43;100925.81;4300563;33;33002;-91
2022/03/17 08:08:00;;;;;;;12.18;7.43;;;;;;;7.38;50.26;100925.22;4308069;33;33804;-92
2022/03/17 08:10:29;;;;;;;9.63;6.35;;;;;;;7.12;51.09;100922.97;4310118;33;33827;-93
2022/03/17 08:12:59;;;;;;;12.68;7.28;;;;;;;7.40;50.30;100923.56;4304693;33;33662;-93
2022/03/17 08:15:29;;;;;;;15.63;7.82;;;;;;;7.35;50.75;100927.75;4301839;33;33442;-92
2022/03/17 08:18:17;;;;;;;11.12;7.22;;;;;;;7.73;50.19;100931.03;4289492;33;34654;-94
2022/03/17 08:20:45;;;;;;;12.05;8.10;;;;;;;7.77;49.84;100927.69;4297207;33;33646;-93
2022/03/17 08:23:21;;;;;;;14.32;8.82;;;;;;;7.81;50.29;100933.78;4309831;33;34325;-92
2022/03/17 08:25:50;;;;;;;14.98;7.35;;;;;;;7.75;50.35;100936.25;4308606;33;34288;-94
2022/03/17 08:28:20;;;;;;;12.68;7.25;;;;;;;8.10;49.99;100935.16;4303213;33;33762;-92
2022/03/17 08:30:51;;;;;;;9.38;5.95;;;;;;;8.40;49.37;100938.25;4305156;33;33637;-93
2022/03/17 08:33:23;;;;;;;13.82;7.00;;;;;;;8.50;49.29;100941.00;4307509;33;33884;-93
2022/03/17 08:35:52;;;;;;;;;;;;;;;8.46;49.20;100935.78;4307460;33;33146;-92
2022/03/17 08:38:21;;;;;;;9.93;7.25;;;;;;;8.83;48.63;100944.94;4311265;33;34104;-92
2022/03/17 08:40:49;;;;;;;11.90;7.72;;;;;;;8.50;48.62;100948.75;4293938;33;32813;-93
2022/03/17 08:43:18;;;;;;;10.65;7.07;;;;;;;8.64;49.06;100950.69;4308804;33;33591;-93
2022/03/17 08:51:27;;;;;;;10.18;6.93;;;;;;;9.33;46.74;100949.91;4294973;33;33124;-93
2022/03/17 08:53:57;;;;;;;13.93;7.53;;;;;;;9.25;47.49;100950.66;4294360;33;32725;-95
2022/03/17 08:56:27;;;;;;;10.30;6.68;;;;;;;9.15;47.12;100949.66;4297644;33;31633;-93
2022/03/17 08:58:56;;;;;;;12.35;7.80;;;;;;;9.65;46.78;100956.31;4299431;33;33109;-94
2022/03/17 09:01:25;;;;;;;12.15;7.30;;;;;;;8.68;48.80;100953.34;4310597;33;33829;-92
2022/03/17 09:03:55;;;;;;;11.02;6.87;;;;;;;9.66;46.30;100948.53;4301382;33;32948;-91
2022/03/17 09:06:24;;;;;;;9.70;6.57;;;;;;;9.08;47.47;100961.66;4307395;33;32473;-94
2022/03/17 09:08:53;;;;;;;11.95;6.78;;;;;;;9.97;46.26;100959.22;4312028;33;33063;-94
2022/03/17 09:11:21;;;;;;;15.02;8.90;;;;;;;10.18;45.43;100971.53;4293782;33;34322;-93
2022/03/17 09:13:50;;;;;;;13.18;8.02;;;;;;;9.75;45.78;100971.09;4295894;33;32510;-91
2022/03/17 09:16:20;;;;;;;16.15;9.07;;;;;;;9.48;45.60;100964.75;4295342;33;32400;-95
2022/03/17 09:18:49;;;;;;;11.55;7.57;;;;;;;9.73;44.87;100972.81;4311115;33;33688;-94
2022/03/17 09:21:19;;;;;;;11.82;6.78;;;;;;;10.31;44.16;100967.34;4314411;33;33988;-92
2022/03/17 09:23:48;;;;;;;11.43;7.15;;;;;;;10.47;43.95;100971.81;4303937;33;33592;-95
2022/03/17 09:26:18;;;;;;;10.15;7.12;;;;;;;10.19;44.33;100971.53;4291799;33;32441;-92
2022/03/17 09:28:47;;;;;;;14.32;8.35;;;;;;;10.59;43.30;100956.31;4299485;33;33804;-95
2022/03/17 09:31:16;;;;;;;14.50;9.85;;;;;;;9.91;44.82;100966.97;4308319;33;32358;-92
2022/03/17 09:33:46;;;;;;;14.60;8.35;;;;;;;9.54;44.82;100966.53;4309746;33;34455;-94
2022/03/17 09:36:16;;;;;;;10.70;7.07;;;;;;;9.77;44.84;100974.59;4308630;33;34050;-94
2022/03/17 09:39:39;;;;;;;13.48;7.40;;;;;;;9.38;45.58;100971.53;4304332;33;33789;-92
2022/03/17 09:41:37;;;;;;;12.82;7.10;;;;;;;9.19;46.24;100972.16;4308487;33;32210;-93
2022/03/17 09:44:06;;;;;;;10.15;6.62;;;;;;;10.18;44.71;100972.37;4295343;33;35128;-94
2022/03/17 09:46:36;;;;;;;15.52;8.88;;;;;;;10.34;44.04;100975.13;4294021;33;32907;-95
2022/03/17 09:49:06;;;;;;;12.98;8.15;;;;;;;9.42;45.36;100966.41;4299946;33;33805;-93
2022/03/17 09:51:36;;;;;;;14.07;7.68;;;;;;;9.65;44.76;100975.31;4308543;33;35040;-94
2022/03/17 09:54:06;;;;;;;13.02;8.30;;;;;;;10.06;44.23;100971.41;4303990;33;34507;-92
2022/03/17 09:56:35;;;;;;;13.35;8.75;;;;;;;10.05;44.24;100970.53;4303475;33;33454;-92
2022/03/17 09:59:06;;;;;;;12.93;7.82;;;;;;;9.98;44.66;100979.13;4290744;33;33195;-93
2022/03/17 10:01:35;;;;;;;12.07;6.68;;;;;;;9.74;45.51;100969.37;4294023;33;32742;-94
2022/03/17 10:04:07;;;;;;;12.02;7.35;;;;;;;9.95;44.80;100971.28;4313110;33;33836;-93
2022/03/17 10:06:36;;;;;;;13.03;8.30;;;;;;;9.86;45.38;100971.19;4304843;33;32753;-94
2022/03/17 10:09:07;;;;;;;11.93;7.85;;;;;;;10.91;43.09;100965.19;4312351;33;34011;-93
2022/03/17 10:11:37;;;;;;;14.87;10.48;;;;;;;10.25;43.96;100966.41;4308232;33;34281;-92
2022/03/17 10:14:08;;;;;;;12.13;7.85;;;;;;;10.37;43.50;100972.59;4306730;33;162616;-93
2022/03/17 10:16:38;;;;;;;13.50;8.27;;;;;;;10.96;42.35;100966.06;4309218;33;33115;-94
2022/03/17 10:19:08;;;;;;;13.90;8.57;;;;;;;10.87;42.48;100964.28;4288454;33;32785;-94
2022/03/17 10:21:38;;;;;;;18.42;9.25;;;;;;;11.01;41.88;100960.03;4303578;33;33229;-93
2022/03/17 10:24:09;;;;;;;12.27;7.25;;;;;;;10.43;43.65;100964.84;4303514;33;34354;-94
2022/03/17 10:26:47;;;;;;;;;;;;;;;11.09;42.51;100954.91;4305176;33;33173;-94
2022/03/17 10:29:19;;;;;;;10.68;7.55;;;;;;;11.61;41.00;100954.22;4300908;33;33799;-95
2022/03/17 10:31:51;;;;;;;12.82;8.23;;;;;;;11.30;41.12;100956.72;4307891;33;34036;-94
2022/03/17 10:34:21;;;;;;;17.95;9.43;;;;;;;11.29;41.21;100963.63;4286104;33;33735;-93
2022/03/17 10:36:50;;;;;;;11.45;7.72;;;;;;;11.30;41.92;100959.31;4300621;33;32379;-94
2022/03/17 10:39:20;;;;;;;15.95;7.90;;;;;;;10.93;42.94;100959.13;4290264;33;32847;-94
2022/03/17 10:41:49;;;;;;;13.00;8.60;;;;;;;11.48;41.34;100964.59;4291434;33;31907;-92
2022/03/17 10:44:20;;;;;;;14.93;9.18;;;;;;;11.26;41.05;100960.13;4293802;33;33001;-95
2022/03/17 10:46:56;;;;;;;13.57;8.32;;;;;;;11.59;40.62;100961.16;4290568;33;33650;-93
2022/03/17 10:49:26;;;;;;;15.43;9.25;;;;;;;11.63;40.49;100968.09;4301235;33;33024;-95
2022/03/17 10:51:55;;;;;;;16.08;9.52;;;;;;;11.21;41.07;100961.84;4298924;33;34020;-95
2022/03/17 10:54:25;;;;;;;14.93;9.00;;;;;;;10.66;42.62;100965.03;4299365;33;34169;-95
2022/03/17 10:57:02;;;;;;;13.95;8.95;;;;;;;11.72;39.76;100965.53;4300996;33;33319;-93
2022/03/17 10:59:38;;;;;;;14.15;10.15;;;;;;;11.93;39.20;100973.38;4308707;33;34214;-94
2022/03/17 11:02:09;;;;;;;12.77;8.27;;;;;;;10.77;41.84;100980.66;4307609;33;34923;-94
2022/03/17 11:04:41;;;;;;;12.68;8.88;;;;;;;11.25;41.71;100979.19;4291054;33;34709;-93
2022/03/17 11:07:13;;;;;;;13.32;9.48;;;;;;;11.18;42.31;100978.28;4288066;33;31862;-93
2022/03/17 11:09:45;;;;;;;14.05;8.40;;;;;;;12.08;40.23;100980.38;4298993;33;34112;-94
2022/03/17 11:12:17;;;;;;;12.68;6.78;;;;;;;10.96;41.60;100979.91;4293126;33;34447;-96
2022/03/17 11:14:47;;;;;;;12.13;8.07;;;;;;;11.26;41.79;100988.72;4290704;33;32148;-93
2022/03/17 11:17:18;;;;;;;12.82;7.85;;;;;;;10.94;41.75;100981.63;4303765;33;33280;-95
2022/03/17 11:19:47;;;;;;;12.77;8.07;;;;;;;11.08;41.98;100989.50;4304115;33;34008;-93
2022/03/17 11:22:22;;;;;;;10.90;7.18;;;;;;;11.82;41.02;100989.81;4293407;33;33981;-93
2022/03/17 11:25:18;;;;;;;11.45;7.40;;;;;;;12.07;40.64;100999.41;4304145;33;33374;-94
2022/03/17 11:27:48;;;;;;;12.07;7.15;;;;;;;11.85;41.07;100988.09;4312905;33;33202;-93
2022/03/17 11:30:19;;;;;;;11.50;7.70;;;;;;;12.23;40.18;100992.53;4316293;33;33487;-94
2022/03/17 11:32:54;;;;;;;12.68;8.05;;;;;;;12.92;39.08;100983.78;4299153;33;34078;-94
2022/03/17 11:35:29;;;;;;;11.35;6.40;;;;;;;11.47;41.46;100987.97;4282124;33;32886;-96
2022/03/17 11:38:14;;;;;;;13.18;7.57;;;;;;;11.88;41.31;100979.44;4301615;33;33993;-95
2022/03/17 11:41:05;;;;;;;11.57;6.65;;;;;;;12.03;41.32;100974.25;4284198;33;33878;-94
2022/03/17 11:43:51;;;;;;;12.90;7.22;;;;;;;12.98;40.17;100991.59;4302406;33;34295;-96
2022/03/17 11:46:21;;;;;;;12.93;9.07;;;;;;;12.90;39.81;100985.53;4305688;33;34560;-94
2022/03/17 11:48:54;;;;;;;9.18;6.30;;;;;;;13.14;38.71;100985.47;4309747;33;33929;-93
2022/03/17 11:51:24;;;;;;;15.98;7.28;;;;;;;13.12;39.09;100986.34;4289789;33;34451;-96
2022/03/17 11:54:04;;;;;;;12.25;7.05;;;;;;;13.13;38.97;100983.75;4290690;33;34141;-93
2022/03/17 11:56:40;;;;;;;17.27;7.32;;;;;;;12.85;40.13;100985.53;4292607;33;32883;-93
2022/03/17 11:59:11;;;;;;;14.40;8.30;;;;;;;13.39;37.97;100981.06;4306598;33;33342;-94
2022/03/17 12:01:42;;;;;;;16.62;7.93;;;;;;;12.99;39.24;100988.12;4308278;33;34795;-94